Time;durP1;ratioP1;P1;durP2;ratioP2;P2;SDS_P1;SDS_P2;PMS_P1;PMS_P2;Temp;Humidity;BMP_temperature;BMP_pressure;BME280_temperature;BME280_humidity;BME280_pressure;Samples;Min_cycle;Max_cycle;Signal;HPM_P1;HPM_P2
2022/05/30 00:01:20;;;;;;;14.90;8.70;;;;;;;16.74;72.12;100042.34;124382;1099;102799;-76
2022/05/30 00:03:51;;;;;;;15.67;8.50;;;;;;;16.74;72.40;100035.27;124468;1099;102919;-76
2022/05/30 00:06:25;;;;;;;14.50;9.17;;;;;;;16.73;72.38;100044.08;124619;1099;104236;-75
2022/05/30 00:08:56;;;;;;;15.70;8.80;;;;;;;16.74;72.35;100032.61;124250;1099;103561;-75
2022/05/30 00:11:29;;;;;;;14.87;9.33;;;;;;;16.76;73.03;100017.59;124234;1099;104262;-75
2022/05/30 00:14:00;;;;;;;15.23;8.93;;;;;;;16.77;72.67;99994.66;124302;1099;103437;-75
2022/05/30 00:16:32;;;;;;;16.77;9.43;;;;;;;16.78;72.79;99986.72;124267;1099;104631;-75
2022/05/30 00:19:04;;;;;;;19.50;11.97;;;;;;;16.79;72.48;99984.94;124783;1099;104179;-76
2022/05/30 00:21:39;;;;;;;18.98;11.55;;;;;;;16.77;72.76;99979.64;124739;1098;104284;-76
2022/05/30 00:24:11;;;;;;;20.27;12.90;;;;;;;16.78;72.97;99985.81;124358;1099;104325;-75
2022/05/30 00:26:42;;;;;;;19.57;12.20;;;;;;;16.78;72.99;99994.66;124463;1099;103021;-76
2022/05/30 00:29:14;;;;;;;19.87;12.03;;;;;;;16.77;73.87;100029.10;124504;1102;104169;-76
2022/05/30 00:31:45;;;;;;;21.40;11.83;;;;;;;16.74;73.83;100040.56;124708;1099;101924;-75
2022/05/30 00:34:18;;;;;;;20.47;12.90;;;;;;;16.75;73.50;100030.84;124808;1099;104237;-75
2022/05/30 00:36:49;;;;;;;19.33;12.57;;;;;;;16.75;73.31;100021.15;124183;1099;102906;-75
2022/05/30 00:39:21;;;;;;;21.03;13.40;;;;;;;16.75;74.01;100015.85;124255;1102;104252;-75
2022/05/30 00:41:53;;;;;;;20.70;12.50;;;;;;;16.73;73.55;100017.59;124214;1102;104044;-75
2022/05/30 00:44:24;;;;;;;21.40;13.10;;;;;;;16.73;73.87;100014.94;124225;1099;104264;-75
2022/05/30 00:46:56;;;;;;;19.07;12.27;;;;;;;16.74;73.75;100015.84;124292;1102;104194;-75
2022/05/30 00:49:27;;;;;;;19.13;12.00;;;;;;;16.73;74.56;100003.47;124308;1099;104192;-75
2022/05/30 00:52:02;;;;;;;18.27;11.67;;;;;;;16.72;74.09;100002.59;124229;1099;104229;-75
2022/05/30 00:54:38;;;;;;;19.93;12.03;;;;;;;16.72;74.20;100010.55;124268;1099;104235;-75
2022/05/30 00:57:21;;;;;;;17.67;11.27;;;;;;;16.71;73.98;100011.41;124228;1098;103216;-75
2022/05/30 00:59:57;;;;;;;19.93;11.90;;;;;;;16.73;74.30;100020.23;124177;1099;104224;-76
2022/05/30 01:02:32;;;;;;;17.63;10.80;;;;;;;16.73;74.15;100028.19;124295;1102;102171;-76
2022/05/30 01:07:53;;;;;;;19.50;10.87;;;;;;;16.71;74.45;100016.71;124151;1099;108152;-76
2022/05/30 01:10:25;;;;;;;18.37;11.00;;;;;;;16.74;73.90;100018.50;124235;1099;104147;-75
2022/05/30 01:12:58;;;;;;;16.27;10.47;;;;;;;16.74;74.32;100014.07;124238;1099;102765;-76
2022/05/30 01:15:33;;;;;;;19.00;11.70;;;;;;;16.76;74.27;100014.95;124235;1100;102171;-76
2022/05/30 01:18:12;;;;;;;20.33;11.90;;;;;;;16.76;74.77;100000.83;124763;1099;117777;-75
2022/05/30 01:20:58;;;;;;;19.97;12.07;;;;;;;16.74;74.74;99999.95;124221;1102;104153;-75
2022/05/30 01:27:26;;;;;;;21.80;11.97;;;;;;;16.71;74.90;100019.36;124734;1099;104210;-75
2022/05/30 01:30:26;;;;;;;18.73;11.73;;;;;;;16.71;74.83;100040.55;124225;1099;104187;-76
2022/05/30 01:33:00;;;;;;;20.27;11.73;;;;;;;16.70;75.63;100038.77;124287;1102;104306;-76
2022/05/30 01:35:33;;;;;;;19.05;11.65;;;;;;;16.68;75.47;100035.24;124305;1100;104207;-75
2022/05/30 01:38:08;;;;;;;20.37;11.47;;;;;;;16.65;76.83;100046.70;124514;1099;104150;-75
2022/05/30 01:40:40;;;;;;;19.83;12.00;;;;;;;16.64;75.75;100054.64;124392;1099;102897;-76
2022/05/30 01:43:15;;;;;;;22.97;14.10;;;;;;;16.63;75.42;100068.79;124467;1099;102756;-76
2022/05/30 01:45:49;;;;;;;24.57;13.63;;;;;;;16.62;75.64;100085.55;124339;1102;102907;-76
2022/05/30 01:48:20;;;;;;;20.30;12.00;;;;;;;16.61;75.54;100099.66;124358;1102;104182;-76
2022/05/30 01:50:52;;;;;;;22.10;12.70;;;;;;;16.64;75.18;100110.27;124355;1098;104201;-76
2022/05/30 01:53:28;;;;;;;22.97;13.30;;;;;;;16.66;75.83;100127.08;124230;1099;104224;-76
2022/05/30 01:56:19;;;;;;;20.80;12.67;;;;;;;16.66;75.54;100119.13;124263;1099;104274;-76
2022/05/30 01:58:55;;;;;;;20.93;12.63;;;;;;;16.67;75.39;100120.88;124312;1102;119995;-76
2022/05/30 02:01:56;;;;;;;23.27;13.33;;;;;;;16.69;75.47;100129.74;124130;1101;104290;-77
2022/05/30 02:04:28;;;;;;;22.47;13.77;;;;;;;16.70;75.47;100123.55;124380;1099;104163;-76
2022/05/30 02:07:01;;;;;;;25.10;13.27;;;;;;;16.70;75.54;100129.75;124187;1100;102257;-77
2022/05/30 02:09:35;;;;;;;22.90;14.20;;;;;;;16.71;75.68;100134.15;124215;1100;104159;-76
2022/05/30 02:12:11;;;;;;;21.77;13.35;;;;;;;16.74;75.79;100148.31;124181;1099;104238;-76
2022/05/30 02:14:52;;;;;;;21.52;13.40;;;;;;;16.73;75.49;100159.77;124229;1099;104325;-76
2022/05/30 02:17:25;;;;;;;22.20;13.80;;;;;;;16.72;75.78;100150.95;124216;1099;104162;-77
2022/05/30 02:19:57;;;;;;;21.40;13.25;;;;;;;16.73;76.28;100158.00;124277;1099;104246;-76
2022/05/30 02:22:33;;;;;;;22.03;12.87;;;;;;;16.73;75.75;100165.08;124339;1099;104348;-76
2022/05/30 02:25:07;;;;;;;22.37;13.30;;;;;;;16.71;76.48;100165.06;124249;1099;104239;-76
2022/05/30 02:27:41;;;;;;;22.03;13.17;;;;;;;16.68;76.86;100165.05;124216;1099;104414;-75
2022/05/30 02:30:14;;;;;;;21.63;13.40;;;;;;;16.66;76.93;100161.52;124301;1099;104638;-77
2022/05/30 02:32:46;;;;;;;22.50;13.90;;;;;;;16.65;76.73;100143.84;124287;1102;104194;-76
2022/05/30 02:38:09;;;;;;;23.80;13.73;;;;;;;16.67;76.32;100104.98;124215;1102;104349;-76
2022/05/30 02:41:07;;;;;;;24.87;13.13;;;;;;;16.64;76.33;100091.73;124715;1099;102922;-76
2022/05/30 02:43:58;;;;;;;22.03;13.87;;;;;;;16.63;76.95;100079.38;124274;1099;104204;-77
2022/05/30 02:46:31;;;;;;;21.53;13.80;;;;;;;16.65;76.77;100082.91;125031;1102;104232;-76
2022/05/30 02:49:05;;;;;;;22.63;13.60;;;;;;;16.65;76.69;100077.61;124224;1102;104656;-77
2022/05/30 02:51:34;;;;;;;;;;;;;;;16.65;76.16;100059.08;124214;1102;104393;-77
2022/05/30 02:54:08;;;;;;;22.70;12.63;;;;;;;16.65;77.11;100037.88;124241;1102;104408;-77
2022/05/30 02:57:15;;;;;;;23.07;13.10;;;;;;;16.66;76.47;100021.13;124506;1099;104676;-76
2022/05/30 02:59:48;;;;;;;23.57;13.70;;;;;;;16.65;76.73;100019.34;124402;1099;104272;-77
2022/05/30 03:02:20;;;;;;;24.43;13.83;;;;;;;16.64;76.59;99993.72;124259;1102;104161;-77
2022/05/30 03:04:53;;;;;;;21.63;12.97;;;;;;;16.62;76.97;99998.14;124133;1102;102851;-77
2022/05/30 03:07:26;;;;;;;22.87;13.43;;;;;;;16.60;77.21;99981.38;124263;1102;102299;-76
2022/05/30 03:09:59;;;;;;;24.63;14.00;;;;;;;16.59;77.19;99966.34;124100;1102;102973;-76
2022/05/30 03:12:47;;;;;;;23.97;14.33;;;;;;;16.57;77.61;99957.52;124195;1102;102460;-76
2022/05/30 03:15:19;;;;;;;26.03;15.73;;;;;;;16.56;77.24;99945.15;124196;1102;102243;-77
2022/05/30 03:17:52;;;;;;;25.07;16.43;;;;;;;16.56;76.85;99945.15;124257;1102;104657;-76
2022/05/30 03:20:25;;;;;;;27.50;17.90;;;;;;;16.53;77.65;99957.52;124150;1102;107898;-76
2022/05/30 03:22:59;;;;;;;26.33;16.97;;;;;;;16.53;77.48;99953.95;124176;1102;102846;-76
2022/05/30 03:25:43;;;;;;;25.40;16.37;;;;;;;16.55;77.06;99952.22;124072;1103;104249;-76
2022/05/30 03:28:15;;;;;;;23.73;15.63;;;;;;;16.58;77.51;99938.98;124258;1102;104505;-76
2022/05/30 03:30:47;;;;;;;23.43;14.83;;;;;;;16.63;77.11;99931.05;124236;1102;104337;-76
2022/05/30 03:33:22;;;;;;;25.80;15.90;;;;;;;16.66;77.63;99915.16;124188;1101;103489;-77
2022/05/30 03:35:54;;;;;;;25.00;15.50;;;;;;;16.67;77.79;99896.63;124313;1102;102002;-76
2022/05/30 03:38:53;;;;;;;23.53;14.70;;;;;;;16.74;77.56;99888.69;124636;1098;104162;-77
2022/05/30 03:41:37;;;;;;;22.07;14.13;;;;;;;16.79;77.74;99885.13;124327;1102;102804;-76
2022/05/30 03:44:14;;;;;;;22.43;13.77;;;;;;;16.85;77.56;99869.23;124304;1098;103219;-77
2022/05/30 03:46:46;;;;;;;25.23;14.77;;;;;;;16.95;77.55;99858.67;124270;1099;104303;-76
2022/05/30 03:49:19;;;;;;;21.63;13.63;;;;;;;17.01;77.91;99851.59;124489;1099;105464;-76
2022/05/30 03:51:51;;;;;;;22.30;13.57;;;;;;;17.03;77.92;99836.59;124201;1099;102852;-76
2022/05/30 03:54:24;;;;;;;20.60;13.80;;;;;;;17.09;77.37;99850.71;124294;1102;102040;-76
2022/05/30 03:56:58;;;;;;;22.77;13.23;;;;;;;17.13;77.80;99858.66;124298;1102;104291;-75
2022/05/30 03:59:33;;;;;;;21.03;13.37;;;;;;;17.22;77.91;99863.95;124160;1099;104188;-76
2022/05/30 04:02:07;;;;;;;23.07;13.43;;;;;;;17.28;77.93;99849.81;124161;1102;104169;-76
2022/05/30 04:04:38;;;;;;;21.20;11.85;;;;;;;17.36;77.75;99849.80;124255;1099;104203;-76
2022/05/30 04:07:10;;;;;;;22.47;12.60;;;;;;;17.42;77.65;99845.34;124309;1099;104647;-76
2022/05/30 04:10:04;;;;;;;25.67;13.67;;;;;;;17.50;77.50;99847.08;124703;1099;104312;-76
2022/05/30 04:13:13;;;;;;;23.13;12.23;;;;;;;17.54;77.68;99855.02;124339;1099;104673;-76
2022/05/30 04:16:12;;;;;;;23.77;11.97;;;;;;;17.60;77.71;99849.69;124782;1099;104199;-75
2022/05/30 04:18:44;;;;;;;21.47;11.63;;;;;;;17.65;77.82;99851.46;124784;1099;104307;-76
2022/05/30 04:21:16;;;;;;;20.83;12.20;;;;;;;17.61;77.75;99866.52;124338;1102;102751;-76
2022/05/30 04:23:48;;;;;;;20.87;12.43;;;;;;;17.63;77.69;99869.16;124291;1100;104252;-76
2022/05/30 04:26:24;;;;;;;18.77;11.37;;;;;;;17.64;77.56;99886.83;124169;1102;104187;-76
2022/05/30 04:28:58;;;;;;;20.90;12.90;;;;;;;17.63;77.59;99893.04;124250;1102;104367;-76
2022/05/30 04:31:48;;;;;;;20.87;12.67;;;;;;;17.64;77.61;99913.35;124402;1099;104208;-75
2022/05/30 04:34:21;;;;;;;21.50;12.73;;;;;;;17.61;77.64;99915.14;124370;1099;104659;-77
2022/05/30 04:36:52;;;;;;;21.10;13.05;;;;;;;17.61;77.16;99915.14;124293;1099;104220;-75
2022/05/30 04:39:24;;;;;;;21.57;14.20;;;;;;;17.58;77.60;99935.50;124223;1102;104204;-75
2022/05/30 04:42:01;;;;;;;23.40;13.80;;;;;;;17.59;77.37;99939.89;124198;1102;104178;-76
2022/05/30 04:44:52;;;;;;;20.77;13.43;;;;;;;17.64;77.59;99971.72;124455;1102;104730;-76
2022/05/30 04:47:42;;;;;;;20.57;13.17;;;;;;;17.68;77.46;99986.76;124486;1102;104380;-75
2022/05/30 04:50:17;;;;;;;22.60;13.70;;;;;;;17.70;77.81;99999.15;124369;1102;104358;-75
2022/05/30 04:52:51;;;;;;;21.77;12.77;;;;;;;17.72;77.81;99985.87;124371;1102;103630;-77
2022/05/30 04:55:42;;;;;;;22.63;12.70;;;;;;;17.69;77.65;99991.19;124327;1103;104399;-75
2022/05/30 04:58:17;;;;;;;22.87;12.53;;;;;;;17.65;77.71;99997.38;124486;1099;104233;-77
2022/05/30 05:01:00;;;;;;;21.00;12.77;;;;;;;17.60;77.92;99992.95;124402;1099;104214;-77
2022/05/30 05:03:33;;;;;;;21.10;13.10;;;;;;;17.59;78.02;99991.20;124392;1102;104240;-77
2022/05/30 05:06:04;;;;;;;;;;;;;;;17.57;78.61;100000.91;124685;1099;102806;-78
2022/05/30 05:08:49;;;;;;;22.20;13.40;;;;;;;17.53;77.93;100012.42;124609;1102;104304;-76
2022/05/30 05:11:39;;;;;;;23.40;13.67;;;;;;;17.49;78.56;100020.39;124943;1099;104271;-77
2022/05/30 05:14:23;;;;;;;23.40;13.60;;;;;;;17.46;78.54;100039.83;124802;1100;102834;-78
2022/05/30 05:17:14;;;;;;;26.63;14.80;;;;;;;17.41;78.82;100049.55;125040;1099;102964;-78
2022/05/30 05:20:00;;;;;;;25.27;14.67;;;;;;;17.37;78.95;100055.73;124573;1099;102360;-77
2022/05/30 05:22:38;;;;;;;;;;;;;;;17.35;79.52;100057.51;124921;1099;104184;-77
2022/05/30 05:25:12;;;;;;;24.30;14.85;;;;;;;17.38;78.66;100049.55;124602;1099;103607;-77
2022/05/30 05:28:04;;;;;;;23.15;14.85;;;;;;;17.38;78.50;100044.25;124709;1099;104182;-78
2022/05/30 05:30:38;;;;;;;22.60;14.80;;;;;;;17.36;78.81;100038.08;124709;1099;103583;-76
2022/05/30 05:33:13;;;;;;;24.83;14.70;;;;;;;17.31;78.65;100042.47;124767;1099;104160;-77
2022/05/30 05:35:46;;;;;;;26.33;15.70;;;;;;;17.29;78.56;100058.38;125192;1099;104156;-77
2022/05/30 05:38:19;;;;;;;24.70;15.30;;;;;;;17.31;78.59;100055.72;125395;1099;102848;-78
2022/05/30 05:40:58;;;;;;;23.17;15.53;;;;;;;17.32;79.04;100076.94;125533;1099;104220;-77
2022/05/30 05:43:34;;;;;;;26.53;16.60;;;;;;;17.33;79.28;100078.72;124883;1099;117918;-77
2022/05/30 05:46:06;;;;;;;24.97;17.10;;;;;;;17.38;78.82;100071.64;125147;1102;102552;-77
2022/05/30 05:48:40;;;;;;;25.10;16.20;;;;;;;17.43;78.91;100077.83;124604;1102;104281;-77
2022/05/30 05:51:14;;;;;;;27.20;16.53;;;;;;;17.51;78.69;100085.79;124795;1103;103267;-76
2022/05/30 05:53:45;;;;;;;25.55;17.10;;;;;;;17.58;78.88;100098.19;124558;1102;103738;-77
2022/05/30 05:56:19;;;;;;;26.03;16.90;;;;;;;17.65;78.91;100101.72;124609;1102;104300;-78
2022/05/30 05:58:55;;;;;;;23.15;16.25;;;;;;;17.69;79.24;100099.97;124696;1103;102429;-78
2022/05/30 06:01:29;;;;;;;23.70;15.53;;;;;;;17.71;78.72;100100.84;125320;1102;104072;-78
2022/05/30 06:04:07;;;;;;;26.90;16.03;;;;;;;17.73;78.67;100099.07;124864;1102;109415;-79
2022/05/30 06:08:04;;;;;;;23.23;16.20;;;;;;;17.73;79.12;100093.77;125951;1102;103584;-80
2022/05/30 06:11:08;;;;;;;29.03;15.53;;;;;;;17.79;78.99;100085.80;125449;1102;104504;-82
2022/05/30 06:13:47;;;;;;;26.23;16.17;;;;;;;17.85;78.99;100084.92;125332;1102;102845;-80
2022/05/30 06:16:22;;;;;;;24.80;16.00;;;;;;;17.88;78.96;100083.17;125396;1102;104619;-80
2022/05/30 06:19:04;;;;;;;25.77;16.67;;;;;;;17.93;78.64;100097.31;124811;1099;102958;-81
2022/05/30 06:21:37;;;;;;;27.83;16.53;;;;;;;17.96;78.76;100097.31;125628;1099;104205;-79
2022/05/30 06:24:12;;;;;;;25.90;16.50;;;;;;;18.01;78.91;100112.37;124673;1099;104274;-81
2022/05/30 06:27:17;;;;;;;23.93;15.70;;;;;;;18.04;79.33;100131.82;125643;1099;102721;-81
2022/05/30 06:29:56;;;;;;;28.00;16.93;;;;;;;18.05;79.04;100157.50;125733;1099;104241;-80
2022/05/30 06:32:56;;;;;;;25.00;16.60;;;;;;;18.08;78.88;100148.66;125399;1102;104746;-79
2022/05/30 06:36:15;;;;;;;26.93;17.20;;;;;;;18.09;79.02;100148.66;125427;1102;103277;-81
2022/05/30 06:38:57;;;;;;;26.37;16.47;;;;;;;18.10;79.14;100147.75;125468;1102;102495;-79
2022/05/30 06:42:05;;;;;;;28.40;17.17;;;;;;;18.12;79.06;100166.33;125545;1102;102848;-80
2022/05/30 06:44:59;;;;;;;29.40;17.30;;;;;;;18.11;79.06;100148.66;125154;1102;104217;-81
2022/05/30 06:47:49;;;;;;;24.97;15.83;;;;;;;18.08;79.32;100140.69;124361;1101;104386;-82
2022/05/30 06:50:40;;;;;;;23.93;14.33;;;;;;;18.08;79.51;100151.31;125334;1102;103332;-81
2022/05/30 06:53:18;;;;;;;22.73;13.50;;;;;;;18.07;79.40;100142.44;125227;1102;104358;-79
2022/05/30 06:55:51;;;;;;;23.93;14.87;;;;;;;18.06;79.13;100132.73;124376;1105;103653;-80
2022/05/30 06:58:25;;;;;;;25.67;14.83;;;;;;;18.09;79.46;100129.16;125115;1101;103591;-79
2022/05/30 07:01:01;;;;;;;;;;;;;;;18.09;79.55;100122.10;125597;1102;104191;-81
2022/05/30 07:03:45;;;;;;;23.63;13.77;;;;;;;18.10;79.75;100115.02;125310;1102;102747;-80
2022/05/30 07:06:35;;;;;;;;;;;;;;;18.09;80.10;100110.58;124783;1102;103486;-79
2022/05/30 07:09:27;;;;;;;24.50;14.10;;;;;;;18.09;79.63;100103.52;125390;1103;103049;-80
2022/05/30 07:12:29;;;;;;;24.50;15.50;;;;;;;18.11;79.88;100096.42;125301;1102;103225;-81
2022/05/30 07:15:08;;;;;;;26.20;15.77;;;;;;;18.17;79.93;100091.98;125163;1105;102314;-81
2022/05/30 07:17:42;;;;;;;24.77;15.37;;;;;;;18.20;79.44;100070.73;125194;1103;104130;-82
2022/05/30 07:20:24;;;;;;;24.50;15.00;;;;;;;18.21;80.26;100077.82;125260;1102;102801;-80
2022/05/30 07:23:15;;;;;;;26.63;15.60;;;;;;;18.19;79.80;100072.52;125433;1102;104230;-81
2022/05/30 07:26:23;;;;;;;24.47;15.60;;;;;;;18.18;80.09;100048.62;125586;1102;102743;-79
2022/05/30 07:29:17;;;;;;;28.60;18.05;;;;;;;18.20;80.37;100028.25;124746;1102;104177;-80
2022/05/30 07:32:09;;;;;;;26.60;17.33;;;;;;;18.22;80.04;100002.59;124695;1102;103435;-78
2022/05/30 07:35:20;;;;;;;29.63;17.80;;;;;;;18.23;80.40;99961.84;124401;1105;102512;-81
2022/05/30 07:38:13;;;;;;;29.13;19.03;;;;;;;18.17;81.04;99903.46;124672;1102;102791;-82
2022/05/30 07:41:04;;;;;;;33.10;20.40;;;;;;;18.05;81.16;99952.20;124664;1102;104229;-82
2022/05/30 07:43:58;;;;;;;27.73;18.07;;;;;;;18.03;80.66;99956.61;124877;1103;102344;-79
2022/05/30 07:46:49;;;;;;;32.33;19.37;;;;;;;18.08;80.72;99966.34;124683;1099;102520;-80
2022/05/30 07:49:36;;;;;;;29.87;17.13;;;;;;;18.16;80.90;99961.00;125538;1099;102706;-79
2022/05/30 07:52:40;;;;;;;28.40;16.37;;;;;;;18.23;80.80;99954.79;124680;1099;102898;-79
2022/05/30 07:55:19;;;;;;;24.33;15.03;;;;;;;18.22;81.07;99949.48;124673;1099;104217;-81
2022/05/30 07:57:55;;;;;;;27.57;16.30;;;;;;;18.25;81.40;99976.03;124741;1098;104304;-80
2022/05/30 08:00:36;;;;;;;24.83;15.63;;;;;;;18.27;81.11;99959.17;124813;1102;103589;-82
2022/05/30 08:03:16;;;;;;;25.17;13.93;;;;;;;18.35;81.10;99937.89;125435;1102;102827;-82
2022/05/30 08:06:05;;;;;;;24.17;13.60;;;;;;;18.40;81.29;99917.53;124409;1102;104165;-77
2022/05/30 08:08:58;;;;;;;23.97;14.13;;;;;;;18.49;80.87;99940.48;124556;1102;104092;-78
2022/05/30 08:11:33;;;;;;;21.55;12.90;;;;;;;18.57;80.93;99943.09;124562;1102;104217;-80
2022/05/30 08:14:12;;;;;;;23.43;12.50;;;;;;;18.61;80.60;99945.72;124368;1102;104349;-79
2022/05/30 08:16:44;;;;;;;22.37;13.50;;;;;;;18.68;80.43;99952.78;124413;1102;103951;-79
2022/05/30 08:19:23;;;;;;;21.63;11.67;;;;;;;18.79;80.93;99954.46;124331;1102;102997;-80
2022/05/30 08:22:04;;;;;;;20.70;11.27;;;;;;;18.90;80.42;99979.25;124618;1102;102875;-80
2022/05/30 08:24:39;;;;;;;19.93;11.10;;;;;;;19.06;80.22;99990.66;124415;1102;104566;-78
2022/05/30 08:27:15;;;;;;;20.97;11.70;;;;;;;19.22;80.55;99989.62;124581;1102;102883;-80
2022/05/30 08:30:11;;;;;;;20.57;12.37;;;;;;;19.39;80.37;99991.28;124671;1102;104224;-81
2022/05/30 08:32:46;;;;;;;19.57;11.57;;;;;;;19.53;80.04;99985.84;124698;1102;104399;-80
2022/05/30 08:36:05;;;;;;;17.47;10.40;;;;;;;19.61;79.49;99985.77;124694;1105;104287;-81
2022/05/30 08:38:37;;;;;;;19.03;10.70;;;;;;;19.64;78.87;99997.26;124480;1102;104399;-78
2022/05/30 08:44:07;;;;;;;21.43;10.10;;;;;;;19.77;78.47;99999.83;124246;1106;103818;-78
2022/05/30 08:47:19;;;;;;;22.50;9.83;;;;;;;19.99;79.27;100009.38;124387;1099;104227;-80
2022/05/30 08:49:56;;;;;;;17.30;8.87;;;;;;;20.11;78.37;100009.21;124639;1099;104256;-79
2022/05/30 08:52:37;;;;;;;16.10;8.00;;;;;;;20.25;79.28;100006.39;124580;1099;104185;-80
2022/05/30 08:55:24;;;;;;;17.53;8.97;;;;;;;20.38;78.93;100022.23;124494;1099;103576;-77
2022/05/30 08:58:15;;;;;;;17.63;9.10;;;;;;;20.44;77.61;100020.39;125211;1102;103637;-83
2022/05/30 09:00:53;;;;;;;16.13;8.33;;;;;;;20.61;77.36;100021.95;124328;1102;104345;-79
2022/05/30 09:03:36;;;;;;;17.33;8.60;;;;;;;20.77;78.61;100031.55;124418;1102;104060;-79
2022/05/30 09:06:26;;;;;;;15.20;8.13;;;;;;;20.82;77.33;100029.69;124419;1105;103747;-79
2022/05/30 09:09:15;;;;;;;14.87;7.60;;;;;;;20.90;76.10;100026.05;125234;1105;103677;-79
2022/05/30 09:12:19;;;;;;;15.93;8.17;;;;;;;21.04;76.84;100017.84;125249;1106;103372;-78
2022/05/30 09:15:17;;;;;;;16.37;8.57;;;;;;;21.26;76.94;100029.94;124476;1105;104305;-79
2022/05/30 09:17:55;;;;;;;17.50;8.67;;;;;;;21.36;76.16;100030.66;124381;1105;102818;-79
2022/05/30 09:20:32;;;;;;;17.53;7.80;;;;;;;21.52;76.65;100026.01;124501;1105;103061;-80
2022/05/30 09:23:16;;;;;;;19.63;8.30;;;;;;;21.59;76.07;100032.98;124536;1102;102666;-81
2022/05/30 09:26:07;;;;;;;;;;;;;;;;;;;;;
2022/05/30 09:29:21;;;;;;;16.27;8.30;;;;;;;21.76;75.97;100014.00;125613;1102;108168;-79
2022/05/30 09:32:50;;;;;;;15.80;8.20;;;;;;;21.93;74.53;100016.36;125257;1105;103773;-80
2022/05/30 09:36:17;;;;;;;16.17;8.40;;;;;;;22.13;74.70;100004.40;124998;1105;104274;-82
2022/05/30 09:39:22;;;;;;;18.13;8.77;;;;;;;22.46;75.27;100015.38;124915;1108;102454;-82
2022/05/30 09:41:57;;;;;;;13.53;7.27;;;;;;;22.56;74.32;100016.92;124030;1109;104384;-78
2022/05/30 09:44:42;;;;;;;17.37;7.40;;;;;;;22.60;73.82;100008.80;124192;1105;104239;-78
2022/05/30 09:47:57;;;;;;;15.43;7.37;;;;;;;22.65;73.85;100002.48;125484;1103;102552;-79
2022/05/30 09:50:45;;;;;;;13.83;6.97;;;;;;;22.79;73.38;99997.70;124715;1102;104399;-79
2022/05/30 09:53:48;;;;;;;17.40;7.57;;;;;;;22.82;72.33;99997.63;124600;1102;103626;-79
2022/05/30 09:56:51;;;;;;;17.27;8.50;;;;;;;23.13;72.85;100003.17;124686;1102;104282;-80
2022/05/30 09:59:42;;;;;;;16.10;7.77;;;;;;;23.38;71.57;100004.39;124578;1102;104067;-80
2022/05/30 10:02:30;;;;;;;16.00;7.00;;;;;;;23.47;70.83;100014.87;124797;1099;104291;-80
2022/05/30 10:05:02;;;;;;;;;;;;;;;23.51;69.67;100024.56;124790;1099;103391;-80
2022/05/30 10:07:50;;;;;;;14.03;7.10;;;;;;;23.53;69.77;100025.42;124788;1099;103475;-79
2022/05/30 10:10:40;;;;;;;10.60;6.20;;;;;;;23.48;69.40;100032.67;124823;1099;118967;-78
2022/05/30 10:13:30;;;;;;;14.07;6.80;;;;;;;23.49;69.02;100051.38;124869;1099;104309;-80
2022/05/30 10:16:36;;;;;;;13.10;6.63;;;;;;;23.48;68.28;100054.09;124607;1099;104077;-80
2022/05/30 10:19:12;;;;;;;12.73;6.23;;;;;;;23.57;67.82;100052.99;124694;1102;102741;-82
2022/05/30 10:28:49;;;;;;;12.57;7.20;;;;;;;23.50;67.01;100039.75;124740;1102;104003;-81
2022/05/30 10:31:44;;;;;;;17.43;7.17;;;;;;;23.59;66.60;100041.34;124768;1102;104026;-82
2022/05/30 10:34:49;;;;;;;13.20;6.87;;;;;;;23.74;66.34;100052.56;125027;1102;102965;-79
2022/05/30 10:37:46;;;;;;;14.67;7.27;;;;;;;23.95;66.38;100048.46;124881;1102;104306;-81
2022/05/30 10:40:30;;;;;;;14.03;7.37;;;;;;;23.93;65.95;100053.86;124697;1102;103395;-79
2022/05/30 10:43:16;;;;;;;15.88;6.83;;;;;;;24.12;65.86;100040.87;124616;1102;102956;-79
2022/05/30 10:46:01;;;;;;;12.17;6.40;;;;;;;24.28;65.62;100044.00;125673;1102;103651;-80
2022/05/30 10:48:39;;;;;;;12.90;6.30;;;;;;;24.25;64.95;100049.44;125422;1102;102691;-83
2022/05/30 10:51:25;;;;;;;13.70;6.40;;;;;;;24.15;64.39;100037.20;124746;1102;104242;-82
2022/05/30 10:54:10;;;;;;;14.17;6.60;;;;;;;24.16;64.02;100029.12;125122;1099;103582;-81
2022/05/30 10:56:57;;;;;;;11.63;6.20;;;;;;;24.19;63.96;100033.53;124581;1099;104326;-79
2022/05/30 10:59:34;;;;;;;13.73;6.20;;;;;;;24.40;64.37;100035.61;125170;1099;103564;-80
2022/05/30 11:02:16;;;;;;;13.23;6.20;;;;;;;24.59;63.95;100027.06;124732;1099;103268;-82
2022/05/30 11:04:54;;;;;;;13.60;6.20;;;;;;;24.78;63.71;100026.47;125670;1102;102089;-82
2022/05/30 11:07:42;;;;;;;11.67;6.10;;;;;;;24.89;63.36;100025.23;125054;1099;104236;-82
2022/05/30 11:10:27;;;;;;;17.23;6.40;;;;;;;24.98;63.08;100024.08;125748;1099;102951;-82
2022/05/30 11:13:10;;;;;;;14.57;6.00;;;;;;;25.08;62.79;100019.29;125573;1100;104265;-83
2022/05/30 11:15:49;;;;;;;15.88;6.35;;;;;;;25.21;62.75;100019.77;125526;1098;102888;-81
2022/05/30 11:18:49;;;;;;;14.63;5.53;;;;;;;25.34;62.60;100015.80;125837;1099;104166;-83
2022/05/30 11:21:36;;;;;;;14.15;6.00;;;;;;;25.42;62.28;100024.47;124719;1099;104296;-79
2022/05/30 11:24:15;;;;;;;13.90;5.67;;;;;;;25.52;61.54;100016.10;125490;1101;104277;-80
2022/05/30 11:27:11;;;;;;;11.27;5.03;;;;;;;25.65;61.26;100018.33;125611;1099;102439;-83
2022/05/30 11:29:58;;;;;;;13.63;5.03;;;;;;;25.63;60.28;100019.30;124748;1099;103543;-80
2022/05/30 11:33:03;;;;;;;9.80;4.70;;;;;;;25.82;60.77;100012.36;124922;1099;104109;-82
2022/05/30 11:35:39;;;;;;;10.23;4.90;;;;;;;26.05;59.78;100009.81;124978;1099;103496;-79
2022/05/30 11:38:40;;;;;;;10.70;4.87;;;;;;;26.22;59.65;100019.96;124905;1099;102941;-81
2022/05/30 11:41:24;;;;;;;13.53;4.43;;;;;;;26.15;58.42;100008.56;124734;1099;102745;-81
2022/05/30 11:44:26;;;;;;;10.70;4.40;;;;;;;26.17;58.46;100007.55;124788;1099;103799;-79
2022/05/30 11:47:12;;;;;;;11.23;4.63;;;;;;;26.27;58.21;100010.80;125033;1099;103856;-79
2022/05/30 11:49:52;;;;;;;12.33;4.30;;;;;;;26.34;57.48;100016.82;124786;1102;103424;-81
2022/05/30 11:52:34;;;;;;;11.97;4.60;;;;;;;26.43;56.96;100002.13;124758;1099;102861;-78
2022/05/30 11:55:17;;;;;;;11.53;4.37;;;;;;;26.49;57.25;100000.11;124857;1102;104241;-82
2022/05/30 11:57:58;;;;;;;11.85;4.50;;;;;;;26.39;56.28;100001.38;124864;1102;104182;-82
2022/05/30 12:00:41;;;;;;;8.97;4.13;;;;;;;26.31;56.83;100003.48;124954;1102;102418;-78
2022/05/30 12:03:44;;;;;;;10.70;4.33;;;;;;;26.17;56.49;99999.48;124734;1102;118490;-81
2022/05/30 12:06:48;;;;;;;11.40;4.47;;;;;;;25.99;56.54;99998.36;124765;1102;105496;-80
2022/05/30 12:09:45;;;;;;;11.27;4.30;;;;;;;25.93;56.12;100005.71;124753;1102;104262;-81
2022/05/30 12:12:34;;;;;;;13.50;5.03;;;;;;;25.89;56.03;100012.15;124420;1102;104036;-80
2022/05/30 12:15:53;;;;;;;9.43;4.37;;;;;;;25.79;55.72;100000.86;125937;1102;102845;-81
2022/05/30 12:24:43;;;;;;;12.23;4.55;;;;;;;25.67;54.80;100002.15;124806;1102;103323;-82
2022/05/30 12:27:46;;;;;;;11.47;4.20;;;;;;;25.80;54.65;100003.49;124922;1102;103255;-81
2022/05/30 12:31:19;;;;;;;12.93;4.27;;;;;;;25.98;54.83;99995.73;124914;1102;103120;-79
2022/05/30 12:34:05;;;;;;;11.90;4.20;;;;;;;26.19;54.62;99994.05;124565;1105;118647;-78
2022/05/30 12:37:25;;;;;;;14.40;4.67;;;;;;;26.27;53.86;99994.66;124691;1105;104097;-79
2022/05/30 12:40:12;;;;;;;11.97;4.70;;;;;;;26.27;52.99;99999.14;124189;1105;104009;-79